sensor_id;sensor_type;location;lat;lon;timestamp;P1;durP1;ratioP1;P2;durP2;ratioP2
29816;SDS011;16805;52.956;5.906;2024-02-14T00:00:24;5.60;;;4.53;;
29816;SDS011;16805;52.956;5.906;2024-02-14T00:02:50;4.00;;;3.65;;
29816;SDS011;16805;52.956;5.906;2024-02-14T00:05:16;4.10;;;3.70;;
29816;SDS011;16805;52.956;5.906;2024-02-14T00:07:42;6.00;;;3.88;;
29816;SDS011;16805;52.956;5.906;2024-02-14T00:10:08;4.93;;;3.72;;
29816;SDS011;16805;52.956;5.906;2024-02-14T00:12:37;8.02;;;4.40;;
29816;SDS011;16805;52.956;5.906;2024-02-14T00:15:03;6.10;;;4.55;;
29816;SDS011;16805;52.956;5.906;2024-02-14T00:17:31;4.15;;;3.72;;
29816;SDS011;16805;52.956;5.906;2024-02-14T00:19:57;3.38;;;3.08;;
29816;SDS011;16805;52.956;5.906;2024-02-14T00:22:23;4.70;;;3.80;;
29816;SDS011;16805;52.956;5.906;2024-02-14T00:24:49;5.65;;;4.13;;
29816;SDS011;16805;52.956;5.906;2024-02-14T00:27:14;4.43;;;3.42;;
29816;SDS011;16805;52.956;5.906;2024-02-14T00:29:40;3.30;;;3.00;;
29816;SDS011;16805;52.956;5.906;2024-02-14T00:32:08;4.72;;;3.88;;
29816;SDS011;16805;52.956;5.906;2024-02-14T00:34:34;4.15;;;3.78;;
29816;SDS011;16805;52.956;5.906;2024-02-14T00:37:00;4.63;;;3.40;;
29816;SDS011;16805;52.956;5.906;2024-02-14T00:39:25;4.05;;;3.05;;
29816;SDS011;16805;52.956;5.906;2024-02-14T00:41:51;3.80;;;2.97;;
29816;SDS011;16805;52.956;5.906;2024-02-14T00:44:18;3.55;;;3.17;;
29816;SDS011;16805;52.956;5.906;2024-02-14T00:46:44;4.10;;;3.55;;
29816;SDS011;16805;52.956;5.906;2024-02-14T00:49:10;2.78;;;2.58;;
29816;SDS011;16805;52.956;5.906;2024-02-14T00:51:36;2.50;;;2.22;;
29816;SDS011;16805;52.956;5.906;2024-02-14T00:54:05;2.80;;;2.20;;
29816;SDS011;16805;52.956;5.906;2024-02-14T00:56:32;3.42;;;3.13;;
29816;SDS011;16805;52.956;5.906;2024-02-14T00:58:57;3.40;;;2.25;;
29816;SDS011;16805;52.956;5.906;2024-02-14T01:01:23;6.03;;;3.20;;
29816;SDS011;16805;52.956;5.906;2024-02-14T01:03:49;3.17;;;2.17;;
29816;SDS011;16805;52.956;5.906;2024-02-14T01:06:15;2.25;;;2.03;;
29816;SDS011;16805;52.956;5.906;2024-02-14T01:08:41;2.65;;;2.33;;
29816;SDS011;16805;52.956;5.906;2024-02-14T01:11:10;2.88;;;2.35;;
29816;SDS011;16805;52.956;5.906;2024-02-14T01:13:35;3.17;;;2.50;;
29816;SDS011;16805;52.956;5.906;2024-02-14T01:16:02;2.40;;;2.08;;
29816;SDS011;16805;52.956;5.906;2024-02-14T01:18:29;3.22;;;2.78;;
29816;SDS011;16805;52.956;5.906;2024-02-14T01:20:55;3.05;;;2.45;;
29816;SDS011;16805;52.956;5.906;2024-02-14T01:23:20;3.70;;;2.63;;
29816;SDS011;16805;52.956;5.906;2024-02-14T01:25:46;2.70;;;2.10;;
29816;SDS011;16805;52.956;5.906;2024-02-14T01:28:11;3.22;;;2.13;;
29816;SDS011;16805;52.956;5.906;2024-02-14T01:30:37;2.15;;;1.73;;
29816;SDS011;16805;52.956;5.906;2024-02-14T01:33:03;2.95;;;2.63;;
29816;SDS011;16805;52.956;5.906;2024-02-14T01:35:29;3.25;;;2.85;;
29816;SDS011;16805;52.956;5.906;2024-02-14T01:37:57;3.13;;;2.72;;
29816;SDS011;16805;52.956;5.906;2024-02-14T01:40:23;1.90;;;1.65;;
29816;SDS011;16805;52.956;5.906;2024-02-14T01:42:49;2.42;;;2.13;;
29816;SDS011;16805;52.956;5.906;2024-02-14T01:45:16;3.50;;;2.08;;
29816;SDS011;16805;52.956;5.906;2024-02-14T01:47:42;2.17;;;1.95;;
29816;SDS011;16805;52.956;5.906;2024-02-14T01:50:08;2.50;;;2.30;;
29816;SDS011;16805;52.956;5.906;2024-02-14T01:52:36;2.55;;;1.77;;
29816;SDS011;16805;52.956;5.906;2024-02-14T01:55:04;2.58;;;1.95;;
29816;SDS011;16805;52.956;5.906;2024-02-14T01:57:33;2.60;;;2.15;;
29816;SDS011;16805;52.956;5.906;2024-02-14T02:00:00;2.60;;;2.35;;
29816;SDS011;16805;52.956;5.906;2024-02-14T02:02:33;2.28;;;1.90;;
29816;SDS011;16805;52.956;5.906;2024-02-14T02:05:02;2.38;;;2.17;;
29816;SDS011;16805;52.956;5.906;2024-02-14T02:07:28;2.70;;;2.38;;
29816;SDS011;16805;52.956;5.906;2024-02-14T02:09:55;2.53;;;2.33;;
29816;SDS011;16805;52.956;5.906;2024-02-14T02:12:20;2.05;;;1.85;;
29816;SDS011;16805;52.956;5.906;2024-02-14T02:14:46;7.05;;;2.47;;
29816;SDS011;16805;52.956;5.906;2024-02-14T02:17:12;2.65;;;2.00;;
29816;SDS011;16805;52.956;5.906;2024-02-14T02:19:38;2.95;;;2.55;;
29816;SDS011;16805;52.956;5.906;2024-02-14T02:22:04;4.25;;;2.38;;
29816;SDS011;16805;52.956;5.906;2024-02-14T02:24:30;3.95;;;2.58;;
29816;SDS011;16805;52.956;5.906;2024-02-14T02:26:55;2.67;;;2.40;;
29816;SDS011;16805;52.956;5.906;2024-02-14T02:29:22;2.58;;;2.38;;
29816;SDS011;16805;52.956;5.906;2024-02-14T02:31:48;4.60;;;3.17;;
29816;SDS011;16805;52.956;5.906;2024-02-14T02:34:13;3.13;;;2.85;;
29816;SDS011;16805;52.956;5.906;2024-02-14T02:36:40;3.40;;;2.90;;
29816;SDS011;16805;52.956;5.906;2024-02-14T02:39:06;4.07;;;2.95;;
29816;SDS011;16805;52.956;5.906;2024-02-14T02:41:32;3.45;;;3.15;;
29816;SDS011;16805;52.956;5.906;2024-02-14T02:43:58;3.20;;;2.90;;
29816;SDS011;16805;52.956;5.906;2024-02-14T02:46:24;3.65;;;2.88;;
29816;SDS011;16805;52.956;5.906;2024-02-14T02:48:51;3.70;;;3.28;;
29816;SDS011;16805;52.956;5.906;2024-02-14T02:51:19;3.45;;;2.70;;
29816;SDS011;16805;52.956;5.906;2024-02-14T02:53:45;3.53;;;2.60;;
29816;SDS011;16805;52.956;5.906;2024-02-14T02:56:12;3.83;;;3.35;;
29816;SDS011;16805;52.956;5.906;2024-02-14T02:58:38;4.07;;;3.67;;
29816;SDS011;16805;52.956;5.906;2024-02-14T03:01:07;4.20;;;3.13;;
29816;SDS011;16805;52.956;5.906;2024-02-14T03:03:34;3.40;;;2.85;;
29816;SDS011;16805;52.956;5.906;2024-02-14T03:06:01;3.53;;;3.22;;
29816;SDS011;16805;52.956;5.906;2024-02-14T03:08:28;3.90;;;3.17;;
29816;SDS011;16805;52.956;5.906;2024-02-14T03:10:55;5.43;;;3.70;;
29816;SDS011;16805;52.956;5.906;2024-02-14T03:13:24;3.95;;;3.58;;
29816;SDS011;16805;52.956;5.906;2024-02-14T03:15:51;3.72;;;3.42;;
29816;SDS011;16805;52.956;5.906;2024-02-14T03:18:17;3.67;;;3.33;;
29816;SDS011;16805;52.956;5.906;2024-02-14T03:20:43;3.15;;;2.88;;
29816;SDS011;16805;52.956;5.906;2024-02-14T03:23:11;3.60;;;3.28;;
29816;SDS011;16805;52.956;5.906;2024-02-14T03:25:37;2.83;;;2.40;;
29816;SDS011;16805;52.956;5.906;2024-02-14T03:28:03;4.15;;;3.28;;
29816;SDS011;16805;52.956;5.906;2024-02-14T03:30:33;3.42;;;3.13;;
29816;SDS011;16805;52.956;5.906;2024-02-14T03:33:04;4.40;;;3.72;;
29816;SDS011;16805;52.956;5.906;2024-02-14T03:35:30;4.40;;;3.72;;
29816;SDS011;16805;52.956;5.906;2024-02-14T03:37:56;4.18;;;3.78;;
29816;SDS011;16805;52.956;5.906;2024-02-14T03:40:21;4.70;;;4.20;;
29816;SDS011;16805;52.956;5.906;2024-02-14T03:42:47;5.40;;;4.22;;
29816;SDS011;16805;52.956;5.906;2024-02-14T03:45:13;4.90;;;4.20;;
29816;SDS011;16805;52.956;5.906;2024-02-14T03:47:39;6.10;;;3.45;;
29816;SDS011;16805;52.956;5.906;2024-02-14T03:50:05;4.85;;;4.15;;
29816;SDS011;16805;52.956;5.906;2024-02-14T03:52:32;5.25;;;3.80;;
29816;SDS011;16805;52.956;5.906;2024-02-14T03:54:58;5.20;;;3.40;;
29816;SDS011;16805;52.956;5.906;2024-02-14T03:57:24;4.40;;;3.58;;
29816;SDS011;16805;52.956;5.906;2024-02-14T03:59:53;4.90;;;4.18;;
29816;SDS011;16805;52.956;5.906;2024-02-14T04:02:19;5.70;;;4.22;;
29816;SDS011;16805;52.956;5.906;2024-02-14T04:04:45;6.68;;;3.88;;
29816;SDS011;16805;52.956;5.906;2024-02-14T04:07:11;4.10;;;3.50;;
29816;SDS011;16805;52.956;5.906;2024-02-14T04:09:37;4.15;;;3.60;;
29816;SDS011;16805;52.956;5.906;2024-02-14T04:12:05;3.10;;;2.85;;
29816;SDS011;16805;52.956;5.906;2024-02-14T04:14:31;4.13;;;3.33;;
29816;SDS011;16805;52.956;5.906;2024-02-14T04:17:00;6.95;;;3.88;;
29816;SDS011;16805;52.956;5.906;2024-02-14T04:19:26;5.18;;;3.47;;
29816;SDS011;16805;52.956;5.906;2024-02-14T04:21:53;4.40;;;3.67;;
29816;SDS011;16805;52.956;5.906;2024-02-14T04:24:19;3.70;;;3.03;;
29816;SDS011;16805;52.956;5.906;2024-02-14T04:26:45;3.65;;;2.75;;
29816;SDS011;16805;52.956;5.906;2024-02-14T04:29:10;4.65;;;3.05;;
29816;SDS011;16805;52.956;5.906;2024-02-14T04:31:36;7.18;;;3.80;;
29816;SDS011;16805;52.956;5.906;2024-02-14T04:34:02;3.85;;;2.67;;
29816;SDS011;16805;52.956;5.906;2024-02-14T04:36:27;4.40;;;3.20;;
29816;SDS011;16805;52.956;5.906;2024-02-14T04:38:55;4.43;;;3.35;;
29816;SDS011;16805;52.956;5.906;2024-02-14T04:41:22;4.10;;;2.65;;
29816;SDS011;16805;52.956;5.906;2024-02-14T04:43:48;3.53;;;2.70;;
29816;SDS011;16805;52.956;5.906;2024-02-14T04:46:14;3.13;;;2.20;;
29816;SDS011;16805;52.956;5.906;2024-02-14T04:48:39;3.80;;;2.33;;
29816;SDS011;16805;52.956;5.906;2024-02-14T04:51:05;5.93;;;2.90;;
29816;SDS011;16805;52.956;5.906;2024-02-14T04:53:31;3.70;;;2.53;;
29816;SDS011;16805;52.956;5.906;2024-02-14T04:55:56;8.52;;;2.50;;
29816;SDS011;16805;52.956;5.906;2024-02-14T04:58:22;4.70;;;2.50;;
29816;SDS011;16805;52.956;5.906;2024-02-14T05:00:48;4.25;;;2.38;;
29816;SDS011;16805;52.956;5.906;2024-02-14T05:03:14;6.07;;;2.60;;
29816;SDS011;16805;52.956;5.906;2024-02-14T05:05:40;4.15;;;2.10;;
29816;SDS011;16805;52.956;5.906;2024-02-14T05:08:06;7.25;;;2.60;;
29816;SDS011;16805;52.956;5.906;2024-02-14T05:10:32;5.78;;;2.40;;
29816;SDS011;16805;52.956;5.906;2024-02-14T05:12:58;2.78;;;2.00;;
29816;SDS011;16805;52.956;5.906;2024-02-14T05:15:23;5.30;;;1.67;;
29816;SDS011;16805;52.956;5.906;2024-02-14T05:17:49;3.00;;;2.00;;
29816;SDS011;16805;52.956;5.906;2024-02-14T05:20:18;4.13;;;2.03;;
29816;SDS011;16805;52.956;5.906;2024-02-14T05:22:44;5.70;;;1.92;;
29816;SDS011;16805;52.956;5.906;2024-02-14T05:25:09;6.68;;;2.35;;
29816;SDS011;16805;52.956;5.906;2024-02-14T05:27:35;7.97;;;2.15;;
29816;SDS011;16805;52.956;5.906;2024-02-14T05:30:04;11.18;;;2.67;;
29816;SDS011;16805;52.956;5.906;2024-02-14T05:32:34;12.15;;;2.75;;
29816;SDS011;16805;52.956;5.906;2024-02-14T05:34:59;13.23;;;2.42;;
29816;SDS011;16805;52.956;5.906;2024-02-14T05:37:25;6.50;;;1.73;;
29816;SDS011;16805;52.956;5.906;2024-02-14T05:39:54;8.63;;;2.55;;
29816;SDS011;16805;52.956;5.906;2024-02-14T05:42:20;12.38;;;2.42;;
29816;SDS011;16805;52.956;5.906;2024-02-14T05:44:46;20.77;;;2.90;;
29816;SDS011;16805;52.956;5.906;2024-02-14T05:47:12;14.75;;;2.42;;
29816;SDS011;16805;52.956;5.906;2024-02-14T05:49:40;9.35;;;1.73;;
29816;SDS011;16805;52.956;5.906;2024-02-14T05:52:06;14.07;;;2.53;;
29816;SDS011;16805;52.956;5.906;2024-02-14T05:54:32;25.13;;;2.95;;
29816;SDS011;16805;52.956;5.906;2024-02-14T05:56:58;24.75;;;3.75;;
29816;SDS011;16805;52.956;5.906;2024-02-14T05:59:24;20.83;;;2.78;;
29816;SDS011;16805;52.956;5.906;2024-02-14T06:01:50;14.18;;;3.20;;
29816;SDS011;16805;52.956;5.906;2024-02-14T06:04:15;11.88;;;2.08;;
29816;SDS011;16805;52.956;5.906;2024-02-14T06:06:41;9.73;;;1.75;;
29816;SDS011;16805;52.956;5.906;2024-02-14T06:09:09;9.40;;;1.80;;
29816;SDS011;16805;52.956;5.906;2024-02-14T06:11:37;15.82;;;2.80;;
29816;SDS011;16805;52.956;5.906;2024-02-14T06:14:07;15.60;;;2.63;;
29816;SDS011;16805;52.956;5.906;2024-02-14T06:16:33;14.10;;;2.33;;
29816;SDS011;16805;52.956;5.906;2024-02-14T06:18:59;14.60;;;2.63;;
29816;SDS011;16805;52.956;5.906;2024-02-14T06:21:25;10.93;;;2.05;;
29816;SDS011;16805;52.956;5.906;2024-02-14T06:23:54;16.42;;;2.22;;
29816;SDS011;16805;52.956;5.906;2024-02-14T06:26:20;6.60;;;2.25;;
29816;SDS011;16805;52.956;5.906;2024-02-14T06:28:48;12.02;;;2.40;;
29816;SDS011;16805;52.956;5.906;2024-02-14T06:31:19;17.10;;;2.83;;
29816;SDS011;16805;52.956;5.906;2024-02-14T06:33:46;23.02;;;2.95;;
29816;SDS011;16805;52.956;5.906;2024-02-14T06:36:11;30.92;;;2.78;;
29816;SDS011;16805;52.956;5.906;2024-02-14T06:38:37;15.20;;;1.80;;
29816;SDS011;16805;52.956;5.906;2024-02-14T06:41:02;13.23;;;1.63;;
29816;SDS011;16805;52.956;5.906;2024-02-14T06:43:28;24.83;;;2.47;;
29816;SDS011;16805;52.956;5.906;2024-02-14T06:45:55;30.27;;;2.33;;
29816;SDS011;16805;52.956;5.906;2024-02-14T06:48:20;21.88;;;2.88;;
29816;SDS011;16805;52.956;5.906;2024-02-14T06:50:48;19.35;;;2.40;;
29816;SDS011;16805;52.956;5.906;2024-02-14T06:53:14;19.85;;;2.92;;
29816;SDS011;16805;52.956;5.906;2024-02-14T06:55:40;25.52;;;2.30;;
29816;SDS011;16805;52.956;5.906;2024-02-14T06:58:06;18.45;;;2.35;;
29816;SDS011;16805;52.956;5.906;2024-02-14T07:00:32;18.63;;;2.88;;
29816;SDS011;16805;52.956;5.906;2024-02-14T07:03:00;22.70;;;2.80;;
29816;SDS011;16805;52.956;5.906;2024-02-14T07:05:26;15.27;;;2.33;;
29816;SDS011;16805;52.956;5.906;2024-02-14T07:07:54;24.65;;;2.88;;
29816;SDS011;16805;52.956;5.906;2024-02-14T07:10:20;14.75;;;2.47;;
29816;SDS011;16805;52.956;5.906;2024-02-14T07:12:46;16.17;;;2.78;;
29816;SDS011;16805;52.956;5.906;2024-02-14T07:15:12;20.25;;;2.83;;
29816;SDS011;16805;52.956;5.906;2024-02-14T07:17:37;11.65;;;2.70;;
29816;SDS011;16805;52.956;5.906;2024-02-14T07:20:04;18.85;;;3.05;;
29816;SDS011;16805;52.956;5.906;2024-02-14T07:22:30;10.15;;;2.55;;
29816;SDS011;16805;52.956;5.906;2024-02-14T07:24:56;17.15;;;2.55;;
29816;SDS011;16805;52.956;5.906;2024-02-14T07:27:25;20.88;;;3.38;;
29816;SDS011;16805;52.956;5.906;2024-02-14T07:29:50;22.73;;;2.83;;
29816;SDS011;16805;52.956;5.906;2024-02-14T07:32:17;25.50;;;2.90;;
29816;SDS011;16805;52.956;5.906;2024-02-14T07:34:45;21.55;;;2.70;;
29816;SDS011;16805;52.956;5.906;2024-02-14T07:37:11;14.27;;;2.60;;
29816;SDS011;16805;52.956;5.906;2024-02-14T07:39:40;15.75;;;2.65;;
29816;SDS011;16805;52.956;5.906;2024-02-14T07:42:08;17.58;;;3.05;;
29816;SDS011;16805;52.956;5.906;2024-02-14T07:44:36;15.35;;;3.42;;
29816;SDS011;16805;52.956;5.906;2024-02-14T07:47:02;6.65;;;2.53;;
29816;SDS011;16805;52.956;5.906;2024-02-14T07:49:28;22.65;;;2.65;;
29816;SDS011;16805;52.956;5.906;2024-02-14T07:51:57;16.98;;;2.17;;
29816;SDS011;16805;52.956;5.906;2024-02-14T07:54:26;25.58;;;4.10;;
29816;SDS011;16805;52.956;5.906;2024-02-14T07:56:51;11.05;;;2.00;;
29816;SDS011;16805;52.956;5.906;2024-02-14T07:59:20;13.30;;;2.90;;
29816;SDS011;16805;52.956;5.906;2024-02-14T08:01:46;26.10;;;3.75;;
29816;SDS011;16805;52.956;5.906;2024-02-14T08:04:14;13.07;;;3.30;;
29816;SDS011;16805;52.956;5.906;2024-02-14T08:06:40;12.70;;;3.05;;
29816;SDS011;16805;52.956;5.906;2024-02-14T08:09:06;15.20;;;3.25;;
29816;SDS011;16805;52.956;5.906;2024-02-14T08:11:34;10.82;;;2.63;;
29816;SDS011;16805;52.956;5.906;2024-02-14T08:14:04;20.98;;;3.75;;
29816;SDS011;16805;52.956;5.906;2024-02-14T08:16:30;10.43;;;3.00;;
29816;SDS011;16805;52.956;5.906;2024-02-14T08:18:59;18.08;;;3.20;;
29816;SDS011;16805;52.956;5.906;2024-02-14T08:21:27;9.30;;;2.25;;
29816;SDS011;16805;52.956;5.906;2024-02-14T08:23:54;15.85;;;3.53;;
29816;SDS011;16805;52.956;5.906;2024-02-14T08:26:23;7.05;;;2.15;;
29816;SDS011;16805;52.956;5.906;2024-02-14T08:28:49;9.82;;;2.13;;
29816;SDS011;16805;52.956;5.906;2024-02-14T08:31:19;12.50;;;2.17;;
29816;SDS011;16805;52.956;5.906;2024-02-14T08:33:46;10.10;;;2.58;;
29816;SDS011;16805;52.956;5.906;2024-02-14T08:36:11;13.75;;;2.70;;
29816;SDS011;16805;52.956;5.906;2024-02-14T08:38:42;10.18;;;1.83;;
29816;SDS011;16805;52.956;5.906;2024-02-14T08:41:08;11.73;;;1.98;;
29816;SDS011;16805;52.956;5.906;2024-02-14T08:43:37;14.48;;;3.10;;
29816;SDS011;16805;52.956;5.906;2024-02-14T08:46:09;8.88;;;2.55;;
29816;SDS011;16805;52.956;5.906;2024-02-14T08:48:36;7.15;;;1.80;;
29816;SDS011;16805;52.956;5.906;2024-02-14T08:51:05;12.25;;;2.60;;
29816;SDS011;16805;52.956;5.906;2024-02-14T08:53:35;5.60;;;2.05;;
29816;SDS011;16805;52.956;5.906;2024-02-14T08:56:03;7.28;;;1.75;;
29816;SDS011;16805;52.956;5.906;2024-02-14T08:58:32;10.00;;;1.88;;
29816;SDS011;16805;52.956;5.906;2024-02-14T09:01:00;4.35;;;1.80;;
29816;SDS011;16805;52.956;5.906;2024-02-14T09:03:26;10.73;;;2.55;;
29816;SDS011;16805;52.956;5.906;2024-02-14T09:05:51;4.90;;;2.03;;
29816;SDS011;16805;52.956;5.906;2024-02-14T09:08:18;15.80;;;2.70;;
29816;SDS011;16805;52.956;5.906;2024-02-14T09:10:48;7.75;;;2.03;;
29816;SDS011;16805;52.956;5.906;2024-02-14T09:13:14;4.43;;;2.35;;
29816;SDS011;16805;52.956;5.906;2024-02-14T09:15:39;7.93;;;2.63;;
29816;SDS011;16805;52.956;5.906;2024-02-14T09:18:05;9.85;;;2.70;;
29816;SDS011;16805;52.956;5.906;2024-02-14T09:20:31;10.10;;;3.20;;
29816;SDS011;16805;52.956;5.906;2024-02-14T09:22:57;5.53;;;2.83;;
29816;SDS011;16805;52.956;5.906;2024-02-14T09:25:26;4.10;;;2.05;;
29816;SDS011;16805;52.956;5.906;2024-02-14T09:27:55;5.45;;;2.65;;
29816;SDS011;16805;52.956;5.906;2024-02-14T09:30:23;6.85;;;3.25;;
29816;SDS011;16805;52.956;5.906;2024-02-14T09:32:48;6.65;;;2.75;;
29816;SDS011;16805;52.956;5.906;2024-02-14T09:35:16;4.60;;;2.33;;
29816;SDS011;16805;52.956;5.906;2024-02-14T09:37:42;5.75;;;2.50;;
29816;SDS011;16805;52.956;5.906;2024-02-14T09:40:08;6.32;;;2.40;;
29816;SDS011;16805;52.956;5.906;2024-02-14T09:42:45;4.43;;;2.20;;
29816;SDS011;16805;52.956;5.906;2024-02-14T09:45:29;5.20;;;2.47;;
29816;SDS011;16805;52.956;5.906;2024-02-14T09:48:13;8.07;;;2.75;;
29816;SDS011;16805;52.956;5.906;2024-02-14T09:50:48;5.43;;;3.20;;
29816;SDS011;16805;52.956;5.906;2024-02-14T09:53:17;9.18;;;3.45;;
29816;SDS011;16805;52.956;5.906;2024-02-14T09:55:46;6.70;;;3.35;;
29816;SDS011;16805;52.956;5.906;2024-02-14T09:58:12;6.90;;;3.50;;
29816;SDS011;16805;52.956;5.906;2024-02-14T10:00:42;13.88;;;3.75;;
29816;SDS011;16805;52.956;5.906;2024-02-14T10:03:11;12.70;;;4.00;;
29816;SDS011;16805;52.956;5.906;2024-02-14T10:05:40;7.60;;;3.00;;
29816;SDS011;16805;52.956;5.906;2024-02-14T10:08:06;7.97;;;3.35;;
29816;SDS011;16805;52.956;5.906;2024-02-14T10:10:34;10.70;;;4.43;;
29816;SDS011;16805;52.956;5.906;2024-02-14T10:13:05;4.75;;;3.15;;
29816;SDS011;16805;52.956;5.906;2024-02-14T10:15:33;6.88;;;3.10;;
29816;SDS011;16805;52.956;5.906;2024-02-14T10:18:04;5.18;;;2.65;;
29816;SDS011;16805;52.956;5.906;2024-02-14T10:20:30;7.85;;;3.08;;
29816;SDS011;16805;52.956;5.906;2024-02-14T10:23:01;5.25;;;2.90;;
29816;SDS011;16805;52.956;5.906;2024-02-14T10:25:28;8.15;;;2.60;;
29816;SDS011;16805;52.956;5.906;2024-02-14T10:28:03;8.05;;;3.08;;
29816;SDS011;16805;52.956;5.906;2024-02-14T10:30:54;5.97;;;2.53;;
29816;SDS011;16805;52.956;5.906;2024-02-14T10:33:23;3.35;;;2.58;;
29816;SDS011;16805;52.956;5.906;2024-02-14T10:35:49;4.05;;;2.60;;
29816;SDS011;16805;52.956;5.906;2024-02-14T10:38:15;5.75;;;2.72;;
29816;SDS011;16805;52.956;5.906;2024-02-14T10:40:46;5.25;;;3.15;;
29816;SDS011;16805;52.956;5.906;2024-02-14T10:43:12;8.25;;;3.53;;
29816;SDS011;16805;52.956;5.906;2024-02-14T10:45:38;4.07;;;3.05;;
29816;SDS011;16805;52.956;5.906;2024-02-14T10:48:05;6.68;;;3.17;;
29816;SDS011;16805;52.956;5.906;2024-02-14T10:50:34;5.53;;;3.15;;
29816;SDS011;16805;52.956;5.906;2024-02-14T10:53:06;7.50;;;3.88;;
29816;SDS011;16805;52.956;5.906;2024-02-14T10:55:36;10.27;;;4.05;;
29816;SDS011;16805;52.956;5.906;2024-02-14T10:58:09;6.03;;;4.50;;
29816;SDS011;16805;52.956;5.906;2024-02-14T11:00:36;5.80;;;4.50;;
29816;SDS011;16805;52.956;5.906;2024-02-14T11:03:03;6.53;;;3.95;;
29816;SDS011;16805;52.956;5.906;2024-02-14T11:05:29;6.10;;;4.00;;
29816;SDS011;16805;52.956;5.906;2024-02-14T11:07:54;6.80;;;3.63;;
29816;SDS011;16805;52.956;5.906;2024-02-14T11:10:24;6.50;;;3.47;;
29816;SDS011;16805;52.956;5.906;2024-02-14T11:12:53;7.10;;;4.20;;
29816;SDS011;16805;52.956;5.906;2024-02-14T11:15:23;7.20;;;4.05;;
29816;SDS011;16805;52.956;5.906;2024-02-14T11:18:02;7.25;;;4.30;;
29816;SDS011;16805;52.956;5.906;2024-02-14T11:20:33;4.90;;;3.60;;
29816;SDS011;16805;52.956;5.906;2024-02-14T11:23:04;6.25;;;4.78;;
29816;SDS011;16805;52.956;5.906;2024-02-14T11:25:37;5.30;;;3.90;;
29816;SDS011;16805;52.956;5.906;2024-02-14T11:28:12;7.82;;;4.18;;
29816;SDS011;16805;52.956;5.906;2024-02-14T11:30:42;7.57;;;4.63;;
29816;SDS011;16805;52.956;5.906;2024-02-14T11:35:48;8.02;;;4.18;;
29816;SDS011;16805;52.956;5.906;2024-02-14T11:38:18;5.50;;;3.30;;
29816;SDS011;16805;52.956;5.906;2024-02-14T11:40:44;8.70;;;3.58;;
29816;SDS011;16805;52.956;5.906;2024-02-14T11:43:14;5.43;;;3.70;;
29816;SDS011;16805;52.956;5.906;2024-02-14T11:45:42;7.00;;;3.78;;
29816;SDS011;16805;52.956;5.906;2024-02-14T11:48:11;4.53;;;3.65;;
29816;SDS011;16805;52.956;5.906;2024-02-14T11:50:43;4.40;;;3.22;;
29816;SDS011;16805;52.956;5.906;2024-02-14T11:53:10;3.58;;;2.72;;
29816;SDS011;16805;52.956;5.906;2024-02-14T11:55:42;4.10;;;3.00;;
29816;SDS011;16805;52.956;5.906;2024-02-14T11:58:08;4.10;;;2.88;;
29816;SDS011;16805;52.956;5.906;2024-02-14T12:00:40;3.72;;;2.33;;
29816;SDS011;16805;52.956;5.906;2024-02-14T12:03:15;3.88;;;2.72;;
29816;SDS011;16805;52.956;5.906;2024-02-14T12:05:51;3.00;;;2.67;;
29816;SDS011;16805;52.956;5.906;2024-02-14T12:08:24;3.22;;;2.53;;
29816;SDS011;16805;52.956;5.906;2024-02-14T12:10:50;5.90;;;2.80;;
29816;SDS011;16805;52.956;5.906;2024-02-14T12:13:22;2.92;;;2.63;;
29816;SDS011;16805;52.956;5.906;2024-02-14T12:15:49;3.20;;;2.90;;
29816;SDS011;16805;52.956;5.906;2024-02-14T12:18:18;4.22;;;3.15;;
29816;SDS011;16805;52.956;5.906;2024-02-14T12:20:47;3.38;;;3.08;;
29816;SDS011;16805;52.956;5.906;2024-02-14T12:23:18;3.33;;;3.03;;
29816;SDS011;16805;52.956;5.906;2024-02-14T12:25:44;4.22;;;3.20;;
29816;SDS011;16805;52.956;5.906;2024-02-14T12:28:18;4.13;;;3.47;;
29816;SDS011;16805;52.956;5.906;2024-02-14T12:30:45;5.78;;;3.92;;
29816;SDS011;16805;52.956;5.906;2024-02-14T12:33:16;4.47;;;3.67;;
29816;SDS011;16805;52.956;5.906;2024-02-14T12:35:43;4.57;;;3.85;;
29816;SDS011;16805;52.956;5.906;2024-02-14T12:38:10;6.15;;;4.32;;
29816;SDS011;16805;52.956;5.906;2024-02-14T12:40:37;5.60;;;4.68;;
29816;SDS011;16805;52.956;5.906;2024-02-14T12:43:06;5.53;;;4.60;;
29816;SDS011;16805;52.956;5.906;2024-02-14T12:45:31;6.40;;;5.05;;
29816;SDS011;16805;52.956;5.906;2024-02-14T12:47:57;6.95;;;5.68;;
29816;SDS011;16805;52.956;5.906;2024-02-14T12:50:22;8.68;;;5.63;;
29816;SDS011;16805;52.956;5.906;2024-02-14T12:52:48;5.93;;;4.47;;
29816;SDS011;16805;52.956;5.906;2024-02-14T12:55:14;6.45;;;4.85;;
29816;SDS011;16805;52.956;5.906;2024-02-14T12:57:40;7.32;;;5.97;;
29816;SDS011;16805;52.956;5.906;2024-02-14T13:00:06;6.95;;;5.47;;
29816;SDS011;16805;52.956;5.906;2024-02-14T13:02:34;7.93;;;6.10;;
29816;SDS011;16805;52.956;5.906;2024-02-14T13:05:00;7.47;;;5.82;;
29816;SDS011;16805;52.956;5.906;2024-02-14T13:07:30;6.43;;;5.68;;
29816;SDS011;16805;52.956;5.906;2024-02-14T13:09:56;6.72;;;5.60;;
29816;SDS011;16805;52.956;5.906;2024-02-14T13:12:25;6.35;;;5.53;;
29816;SDS011;16805;52.956;5.906;2024-02-14T13:14:51;5.72;;;5.18;;
29816;SDS011;16805;52.956;5.906;2024-02-14T13:17:17;5.38;;;4.07;;
29816;SDS011;16805;52.956;5.906;2024-02-14T13:19:43;5.35;;;4.85;;
29816;SDS011;16805;52.956;5.906;2024-02-14T13:22:09;5.45;;;3.97;;
29816;SDS011;16805;52.956;5.906;2024-02-14T13:24:35;6.55;;;4.18;;
29816;SDS011;16805;52.956;5.906;2024-02-14T13:27:01;5.18;;;4.65;;
29816;SDS011;16805;52.956;5.906;2024-02-14T13:29:26;5.00;;;4.50;;
29816;SDS011;16805;52.956;5.906;2024-02-14T13:31:53;4.80;;;4.07;;
29816;SDS011;16805;52.956;5.906;2024-02-14T13:34:18;5.05;;;4.50;;
29816;SDS011;16805;52.956;5.906;2024-02-14T13:36:45;4.38;;;3.67;;
29816;SDS011;16805;52.956;5.906;2024-02-14T13:39:14;4.93;;;4.30;;
29816;SDS011;16805;52.956;5.906;2024-02-14T13:41:40;5.20;;;4.70;;
29816;SDS011;16805;52.956;5.906;2024-02-14T13:44:09;4.78;;;3.90;;
29816;SDS011;16805;52.956;5.906;2024-02-14T13:46:38;3.85;;;3.50;;
29816;SDS011;16805;52.956;5.906;2024-02-14T13:49:11;4.60;;;4.10;;
29816;SDS011;16805;52.956;5.906;2024-02-14T13:51:41;4.38;;;3.75;;
29816;SDS011;16805;52.956;5.906;2024-02-14T13:54:06;3.95;;;3.55;;
29816;SDS011;16805;52.956;5.906;2024-02-14T13:56:34;3.53;;;3.22;;
29816;SDS011;16805;52.956;5.906;2024-02-14T13:59:02;4.05;;;3.35;;
29816;SDS011;16805;52.956;5.906;2024-02-14T14:01:28;3.75;;;3.25;;
29816;SDS011;16805;52.956;5.906;2024-02-14T14:03:53;4.68;;;4.00;;
29816;SDS011;16805;52.956;5.906;2024-02-14T14:06:23;3.22;;;2.92;;
29816;SDS011;16805;52.956;5.906;2024-02-14T14:08:52;3.35;;;2.78;;
29816;SDS011;16805;52.956;5.906;2024-02-14T14:11:21;3.17;;;2.88;;
29816;SDS011;16805;52.956;5.906;2024-02-14T14:13:46;3.55;;;3.03;;
29816;SDS011;16805;52.956;5.906;2024-02-14T14:16:12;3.70;;;2.70;;
29816;SDS011;16805;52.956;5.906;2024-02-14T14:18:38;3.28;;;2.97;;
29816;SDS011;16805;52.956;5.906;2024-02-14T14:21:04;2.70;;;2.03;;
29816;SDS011;16805;52.956;5.906;2024-02-14T14:23:58;3.47;;;3.17;;
29816;SDS011;16805;52.956;5.906;2024-02-14T14:26:24;3.38;;;2.53;;
29816;SDS011;16805;52.956;5.906;2024-02-14T14:28:49;5.32;;;4.03;;
29816;SDS011;16805;52.956;5.906;2024-02-14T14:31:15;5.75;;;3.03;;
29816;SDS011;16805;52.956;5.906;2024-02-14T14:33:44;4.25;;;3.10;;
29816;SDS011;16805;52.956;5.906;2024-02-14T14:36:15;4.50;;;3.22;;
29816;SDS011;16805;52.956;5.906;2024-02-14T14:38:48;6.43;;;3.58;;
29816;SDS011;16805;52.956;5.906;2024-02-14T14:41:14;3.65;;;3.17;;
29816;SDS011;16805;52.956;5.906;2024-02-14T14:43:39;4.38;;;3.25;;
29816;SDS011;16805;52.956;5.906;2024-02-14T14:46:05;4.28;;;3.88;;
29816;SDS011;16805;52.956;5.906;2024-02-14T14:48:31;12.25;;;4.70;;